Time;durP1;ratioP1;P1;durP2;ratioP2;P2;SDS_P1;SDS_P2;PMS_P1;PMS_P2;Temp;Humidity;BMP_temperature;BMP_pressure;BME280_temperature;BME280_humidity;BME280_pressure;Samples;Min_cycle;Max_cycle;Signal;HPM_P1;HPM_P2
2022/07/18 00:00:16;;;;;;;3.53;1.80;;;;;;;22.34;37.04;100729.34;4960326;28;20066;-42
2022/07/18 00:02:43;;;;;;;4.35;2.22;;;;;;;22.30;37.07;100738.31;4961844;28;20050;-45
2022/07/18 00:05:10;;;;;;;3.63;2.08;;;;;;;22.28;36.27;100728.69;4962139;28;20110;-42
2022/07/18 00:07:36;;;;;;;5.13;2.22;;;;;;;22.24;36.45;100730.63;4967205;28;20051;-44
2022/07/18 00:10:04;;;;;;;4.72;2.13;;;;;;;22.21;35.90;100725.47;4962493;28;20470;-43
2022/07/18 00:12:31;;;;;;;4.20;2.15;;;;;;;22.17;35.87;100719.47;4964188;28;20047;-44
2022/07/18 00:14:58;;;;;;;3.70;1.90;;;;;;;22.13;36.34;100723.16;4966527;28;20085;-43
2022/07/18 00:17:25;;;;;;;4.50;1.90;;;;;;;22.11;36.15;100718.84;4961443;28;20051;-42
2022/07/18 00:19:52;;;;;;;5.10;2.40;;;;;;;22.07;36.13;100719.00;4966516;28;20077;-44
2022/07/18 00:22:19;;;;;;;4.72;2.25;;;;;;;22.02;35.78;100720.94;4962077;28;20055;-44
2022/07/18 00:24:45;;;;;;;4.53;2.10;;;;;;;22.00;36.01;100727.19;4964212;28;20105;-42
2022/07/18 00:27:12;;;;;;;4.22;2.22;;;;;;;21.96;35.96;100726.47;4963160;28;20135;-42
2022/07/18 00:29:39;;;;;;;3.63;2.17;;;;;;;21.92;35.53;100724.88;4965717;28;20050;-44
2022/07/18 00:32:07;;;;;;;5.18;2.08;;;;;;;21.89;35.42;100720.56;4964113;28;20074;-44
2022/07/18 00:34:35;;;;;;;3.58;1.90;;;;;;;21.86;35.68;100730.38;4961330;28;20054;-42
2022/07/18 00:37:02;;;;;;;4.38;1.92;;;;;;;21.80;35.52;100724.44;4962086;28;20121;-45
2022/07/18 00:39:30;;;;;;;3.90;2.00;;;;;;;21.78;35.26;100718.34;4964830;28;20055;-49
2022/07/18 00:41:58;;;;;;;4.82;2.38;;;;;;;21.73;35.19;100724.69;4964300;28;20051;-43
2022/07/18 00:44:26;;;;;;;4.22;2.00;;;;;;;21.70;34.88;100715.13;4966666;28;20054;-43
2022/07/18 00:46:54;;;;;;;3.45;2.17;;;;;;;21.68;34.89;100719.59;4965750;28;20105;-45
2022/07/18 00:49:21;;;;;;;4.05;1.98;;;;;;;21.65;35.38;100717.09;4964890;28;20078;-42
2022/07/18 00:51:49;;;;;;;6.78;2.25;;;;;;;21.61;35.07;100715.50;4966210;28;20053;-43
2022/07/18 00:54:16;;;;;;;4.70;2.13;;;;;;;21.58;34.76;100721.72;4962933;28;20050;-44
2022/07/18 00:56:44;;;;;;;3.97;1.83;;;;;;;21.54;34.70;100710.44;4963759;28;20054;-43
2022/07/18 00:59:11;;;;;;;4.07;2.10;;;;;;;21.50;34.69;100718.53;4962054;28;20051;-43
2022/07/18 01:01:42;;;;;;;4.25;2.00;;;;;;;21.45;34.66;100710.81;4963196;28;20114;-43
2022/07/18 01:04:11;;;;;;;3.70;1.70;;;;;;;21.41;34.86;100720.59;4966132;28;20482;-45
2022/07/18 01:06:38;;;;;;;4.00;1.80;;;;;;;21.36;35.06;100721.69;4965488;28;20113;-44
2022/07/18 01:09:07;;;;;;;4.82;1.77;;;;;;;21.32;34.82;100716.53;4967843;28;20047;-44
2022/07/18 01:11:34;;;;;;;3.85;2.00;;;;;;;21.29;34.84;100716.66;4962771;28;20053;-44
2022/07/18 01:14:03;;;;;;;4.13;2.00;;;;;;;21.26;34.87;100721.16;4966366;28;20050;-42
2022/07/18 01:16:30;;;;;;;3.67;1.63;;;;;;;21.22;34.79;100719.56;4963161;28;20090;-48
2022/07/18 01:18:57;;;;;;;4.65;2.33;;;;;;;21.16;34.90;100710.09;4962735;28;20051;-47
2022/07/18 01:21:24;;;;;;;4.55;2.30;;;;;;;21.12;35.37;100713.78;4961631;28;20059;-47
2022/07/18 01:23:51;;;;;;;4.05;1.98;;;;;;;21.04;35.39;100704.38;4976059;28;20046;-46
2022/07/18 01:26:18;;;;;;;4.60;2.05;;;;;;;21.00;35.04;100710.66;4965755;28;20505;-44
2022/07/18 01:28:46;;;;;;;4.70;2.67;;;;;;;20.97;35.17;100709.94;4963020;28;20076;-43
2022/07/18 01:31:14;;;;;;;6.10;2.20;;;;;;;20.93;35.39;100709.16;4962247;28;20094;-43
2022/07/18 01:33:41;;;;;;;8.30;1.90;;;;;;;20.90;35.33;100706.63;4962636;28;20059;-42
2022/07/18 01:36:08;;;;;;;3.33;2.00;;;;;;;20.87;35.01;100704.09;4965201;28;20109;-44
2022/07/18 01:38:35;;;;;;;5.13;2.25;;;;;;;20.83;35.26;100703.34;4965079;28;20125;-45
2022/07/18 01:41:04;;;;;;;3.85;1.92;;;;;;;20.79;35.41;100707.88;4970625;28;20058;-42
2022/07/18 01:43:31;;;;;;;4.63;1.88;;;;;;;20.76;35.37;100707.97;4967052;28;20730;-44
2022/07/18 01:45:58;;;;;;;5.88;2.17;;;;;;;20.72;35.72;100706.34;4963272;28;20050;-44
2022/07/18 01:48:25;;;;;;;4.25;1.90;;;;;;;20.70;35.49;100697.63;4968271;28;20658;-45
2022/07/18 01:50:52;;;;;;;5.20;2.50;;;;;;;20.66;35.56;100702.16;4965587;28;20141;-44
2022/07/18 01:53:19;;;;;;;5.28;2.05;;;;;;;20.64;35.65;100697.88;4963059;28;20055;-44
2022/07/18 01:55:46;;;;;;;5.45;2.22;;;;;;;20.60;35.83;100691.84;4967821;28;20047;-42
2022/07/18 01:58:12;;;;;;;4.85;2.50;;;;;;;20.59;35.75;100691.88;4966538;28;20110;-44
2022/07/18 02:00:39;;;;;;;5.18;2.63;;;;;;;20.55;35.73;100688.50;4967077;28;20078;-48
2022/07/18 02:03:12;;;;;;;3.78;2.10;;;;;;;20.52;35.82;100692.13;4967369;28;20046;-48
2022/07/18 02:05:39;;;;;;;4.50;2.40;;;;;;;20.48;35.44;100682.63;4966843;28;20055;-49
2022/07/18 02:08:06;;;;;;;4.97;2.33;;;;;;;20.46;35.71;100681.78;4964781;28;20379;-44
2022/07/18 02:10:33;;;;;;;4.50;1.98;;;;;;;20.46;35.56;100689.69;4965149;28;20770;-44
2022/07/18 02:12:59;;;;;;;4.78;2.30;;;;;;;20.44;35.93;100681.00;4967472;28;20430;-45
2022/07/18 02:15:26;;;;;;;5.05;2.30;;;;;;;20.40;36.07;100669.69;4967189;28;20419;-46
2022/07/18 02:17:53;;;;;;;3.33;1.90;;;;;;;20.38;36.21;100676.81;4963832;28;20058;-45
2022/07/18 02:20:20;;;;;;;4.45;2.00;;;;;;;20.35;36.27;100673.41;4966377;28;20051;-44
2022/07/18 02:22:46;;;;;;;5.30;2.75;;;;;;;20.33;36.11;100673.44;4966134;28;20066;-44
2022/07/18 02:25:13;;;;;;;5.13;2.42;;;;;;;20.31;36.19;100669.16;4966079;28;20055;-46
2022/07/18 02:27:40;;;;;;;4.78;2.25;;;;;;;20.28;36.01;100667.50;4965234;28;20106;-45
2022/07/18 02:30:10;;;;;;;5.47;2.58;;;;;;;20.27;36.30;100666.63;4967942;28;20046;-43
2022/07/18 02:32:38;;;;;;;4.95;2.40;;;;;;;20.23;36.26;100672.91;4962673;28;20046;-44
2022/07/18 02:35:06;;;;;;;3.90;2.03;;;;;;;20.22;36.24;100663.28;4968092;28;20054;-42
2022/07/18 02:37:33;;;;;;;4.72;2.17;;;;;;;20.19;36.45;100658.13;4968629;28;20490;-42
2022/07/18 02:40:00;;;;;;;4.78;1.95;;;;;;;20.16;36.41;100661.72;4964903;28;20047;-42
2022/07/18 02:42:27;;;;;;;4.50;2.33;;;;;;;20.14;36.04;100657.44;4965914;28;20055;-43
2022/07/18 02:44:54;;;;;;;4.25;2.45;;;;;;;20.12;36.59;100652.22;4961132;28;20046;-43
2022/07/18 02:47:20;;;;;;;5.88;2.35;;;;;;;20.11;36.42;100649.66;4966818;28;20486;-43
2022/07/18 02:49:47;;;;;;;4.63;2.25;;;;;;;20.10;37.05;100645.31;4966316;28;20070;-46
2022/07/18 02:52:14;;;;;;;4.80;2.08;;;;;;;20.10;36.33;100650.56;4963612;28;20521;-43
2022/07/18 02:54:40;;;;;;;4.85;2.53;;;;;;;20.08;37.04;100647.09;4963318;28;20046;-45
2022/07/18 02:57:07;;;;;;;5.18;2.35;;;;;;;20.04;36.62;100641.09;4964888;28;20105;-46
2022/07/18 02:59:34;;;;;;;4.22;2.13;;;;;;;20.03;36.80;100634.97;4967954;28;20540;-44
2022/07/18 03:02:01;;;;;;;4.85;2.53;;;;;;;20.00;36.96;100640.34;4967651;28;20054;-46
2022/07/18 03:04:28;;;;;;;4.32;2.22;;;;;;;19.97;37.41;100640.44;4964438;28;20046;-47
2022/07/18 03:06:54;;;;;;;6.03;1.90;;;;;;;19.96;37.41;100638.69;4965933;28;20090;-46
2022/07/18 03:09:21;;;;;;;4.35;2.20;;;;;;;19.94;37.64;100640.53;4965726;28;20105;-43
2022/07/18 03:11:48;;;;;;;6.07;3.05;;;;;;;19.93;37.30;100635.31;4966258;28;20487;-45
2022/07/18 03:14:15;;;;;;;4.47;2.10;;;;;;;19.91;37.43;100632.72;4968357;28;20113;-47
2022/07/18 03:16:41;;;;;;;5.22;2.28;;;;;;;19.88;37.54;100635.44;4967849;28;20073;-47
2022/07/18 03:19:08;;;;;;;6.68;2.50;;;;;;;19.87;37.15;100631.09;4964763;28;20043;-43
2022/07/18 03:21:35;;;;;;;4.63;2.33;;;;;;;19.85;37.80;100622.41;4969550;28;20043;-43
2022/07/18 03:24:01;;;;;;;4.20;2.00;;;;;;;19.82;37.59;100625.16;4968569;28;20043;-42
2022/07/18 03:26:28;;;;;;;4.88;2.20;;;;;;;19.82;37.33;100627.78;4968519;28;20065;-43
2022/07/18 03:28:55;;;;;;;5.65;2.33;;;;;;;19.81;37.84;100623.41;4967984;28;20558;-42
2022/07/18 03:31:22;;;;;;;4.40;2.08;;;;;;;19.78;37.83;100617.38;4965750;28;20039;-43
2022/07/18 03:33:48;;;;;;;5.82;2.33;;;;;;;19.76;37.75;100616.53;4967093;28;20043;-43
2022/07/18 03:36:15;;;;;;;5.03;2.13;;;;;;;19.74;37.91;100607.84;4966027;28;20157;-45
2022/07/18 03:38:43;;;;;;;4.15;1.80;;;;;;;19.74;37.97;100615.75;4962235;28;20066;-44
2022/07/18 03:41:11;;;;;;;4.63;1.80;;;;;;;19.70;37.76;100622.00;4969556;28;20038;-44
2022/07/18 03:43:38;;;;;;;3.83;1.80;;;;;;;19.67;37.71;100614.22;4967546;28;20110;-44
2022/07/18 03:46:06;;;;;;;4.60;2.15;;;;;;;19.65;38.13;100608.13;4966405;28;20046;-43
2022/07/18 03:48:33;;;;;;;4.47;2.22;;;;;;;19.64;37.86;100606.44;4964367;28;20430;-46
2022/07/18 03:51:01;;;;;;;3.92;2.15;;;;;;;19.61;38.70;100598.63;4965057;28;20043;-43
2022/07/18 03:53:28;;;;;;;4.85;2.00;;;;;;;19.58;38.15;100596.09;4965565;28;20055;-45
2022/07/18 03:55:54;;;;;;;4.22;2.25;;;;;;;19.56;38.20;100598.81;4964145;28;20051;-44
2022/07/18 03:58:21;;;;;;;4.43;2.22;;;;;;;19.53;38.47;100598.91;4968839;28;20124;-43
2022/07/18 04:00:48;;;;;;;4.25;2.17;;;;;;;19.50;38.19;100597.22;4964970;28;20039;-45
2022/07/18 04:03:16;;;;;;;4.05;1.85;;;;;;;19.44;38.49;100594.78;4964772;28;20508;-45
2022/07/18 04:05:43;;;;;;;5.72;2.47;;;;;;;19.40;38.52;100598.41;4966106;28;20117;-50
2022/07/18 04:08:10;;;;;;;4.47;1.95;;;;;;;19.36;38.62;100591.53;4962748;28;20054;-43
2022/07/18 04:10:39;;;;;;;4.82;2.33;;;;;;;19.33;38.82;100586.38;4964643;28;20640;-46
2022/07/18 04:13:07;;;;;;;5.63;2.03;;;;;;;19.31;38.88;100593.41;4965153;28;20066;-46
2022/07/18 04:15:34;;;;;;;4.45;2.40;;;;;;;19.27;38.71;100588.28;4965449;28;20054;-43
2022/07/18 04:18:02;;;;;;;4.80;2.20;;;;;;;19.26;39.25;100591.78;4964603;28;20102;-44
2022/07/18 04:20:29;;;;;;;5.22;2.20;;;;;;;19.24;38.71;100588.38;4965068;28;20065;-47
2022/07/18 04:22:59;;;;;;;4.78;2.17;;;;;;;19.25;39.69;100589.25;4966030;28;20624;-45
2022/07/18 04:25:28;;;;;;;5.13;2.42;;;;;;;19.24;39.38;100588.38;4962865;28;20039;-51
2022/07/18 04:27:55;;;;;;;5.05;2.60;;;;;;;19.24;39.73;100593.63;4964679;28;20473;-44
2022/07/18 04:30:24;;;;;;;4.15;2.13;;;;;;;19.25;39.18;100579.59;4964033;28;20102;-47
2022/07/18 04:32:51;;;;;;;8.05;2.47;;;;;;;19.21;39.60;100577.97;4965076;28;20402;-46
2022/07/18 04:35:20;;;;;;;5.70;2.65;;;;;;;19.13;39.93;100577.34;4963978;28;20142;-46
2022/07/18 04:37:47;;;;;;;5.85;2.63;;;;;;;19.08;39.46;100579.25;4960293;28;20043;-47
2022/07/18 04:40:15;;;;;;;5.40;2.60;;;;;;;19.05;39.77;100571.44;4965010;28;20514;-44
2022/07/18 04:42:42;;;;;;;5.25;2.65;;;;;;;19.05;40.06;100577.53;4966731;28;20055;-46
2022/07/18 04:45:10;;;;;;;6.78;2.30;;;;;;;19.07;39.66;100577.50;4960703;28;20075;-45
2022/07/18 04:47:36;;;;;;;5.55;2.20;;;;;;;19.07;40.58;100577.50;4966453;28;20051;-46
2022/07/18 04:50:05;;;;;;;6.32;2.85;;;;;;;19.08;40.01;100587.13;4964556;28;20051;-42
2022/07/18 04:52:41;;;;;;;4.13;2.05;;;;;;;19.04;40.65;100585.47;4958396;28;20074;-47
2022/07/18 04:55:10;;;;;;;4.90;2.60;;;;;;;19.00;41.02;100580.31;4959964;28;20101;-42
2022/07/18 04:57:37;;;;;;;8.02;2.03;;;;;;;18.95;40.49;100576.09;4961185;28;20050;-44
2022/07/18 05:00:07;;;;;;;6.03;2.75;;;;;;;18.94;41.14;100577.84;4961834;28;20066;-42
2022/07/18 05:02:33;;;;;;;7.53;2.28;;;;;;;18.93;41.55;100578.75;4966277;28;20051;-43
2022/07/18 05:05:00;;;;;;;6.13;2.10;;;;;;;18.95;41.84;100576.09;4966346;28;20078;-42
2022/07/18 05:07:27;;;;;;;3.78;2.03;;;;;;;18.98;41.73;100582.09;4960895;28;20074;-43
2022/07/18 05:09:54;;;;;;;5.43;2.75;;;;;;;19.02;41.55;100578.47;4965207;28;20061;-43
2022/07/18 05:12:23;;;;;;;4.70;2.38;;;;;;;19.08;42.07;100576.63;4967162;28;20597;-50
2022/07/18 05:14:50;;;;;;;5.20;2.40;;;;;;;19.17;42.27;100573.72;4963535;28;20061;-48
2022/07/18 05:17:28;;;;;;;4.90;2.50;;;;;;;19.29;42.22;100574.25;4966238;28;20101;-42
2022/07/18 05:19:54;;;;;;;5.63;2.20;;;;;;;19.42;42.07;100570.31;4965461;28;20054;-44
2022/07/18 05:22:21;;;;;;;5.10;2.63;;;;;;;19.57;42.46;100562.84;4966847;28;20884;-45
2022/07/18 05:24:50;;;;;;;5.05;2.30;;;;;;;19.74;42.33;100563.19;4968482;28;20047;-45
2022/07/18 05:27:17;;;;;;;6.38;2.65;;;;;;;19.90;42.35;100563.50;4966885;28;20074;-44
2022/07/18 05:29:43;;;;;;;6.20;2.17;;;;;;;20.09;42.39;100559.47;4967990;28;20051;-46
2022/07/18 05:32:11;;;;;;;5.78;2.53;;;;;;;20.27;42.22;100561.41;4965093;28;20051;-42
2022/07/18 05:34:41;;;;;;;5.00;2.13;;;;;;;20.44;42.56;100559.09;4965530;28;20047;-47
2022/07/18 05:37:08;;;;;;;7.90;2.60;;;;;;;20.62;42.53;100557.56;4963834;28;20063;-42
2022/07/18 05:39:35;;;;;;;4.93;2.20;;;;;;;20.79;42.70;100554.31;4968014;28;20457;-44
2022/07/18 05:42:03;;;;;;;10.93;3.33;;;;;;;20.98;42.71;100548.41;4966208;28;20047;-43
2022/07/18 05:44:30;;;;;;;5.05;2.50;;;;;;;21.16;42.99;100552.09;4962343;28;20051;-43
2022/07/18 05:46:56;;;;;;;5.45;2.72;;;;;;;21.28;43.11;100546.31;4967882;28;20101;-43
2022/07/18 05:49:23;;;;;;;6.90;2.28;;;;;;;21.40;43.14;100550.25;4965466;28;20055;-43
2022/07/18 05:51:50;;;;;;;4.80;2.33;;;;;;;21.57;43.19;100546.94;4968103;28;20050;-43
2022/07/18 05:54:19;;;;;;;5.38;2.60;;;;;;;21.74;43.39;100544.53;4965062;28;20046;-42
2022/07/18 05:56:48;;;;;;;7.45;2.25;;;;;;;21.93;43.45;100545.50;4969408;28;20133;-43
2022/07/18 05:59:16;;;;;;;6.15;2.75;;;;;;;22.11;42.71;100542.13;4967336;28;20137;-43
2022/07/18 06:01:43;;;;;;;5.07;2.30;;;;;;;22.28;42.67;100536.97;4964839;28;20101;-43
2022/07/18 06:04:09;;;;;;;4.97;2.22;;;;;;;22.47;42.66;100541.44;4965632;28;20461;-42
2022/07/18 06:06:37;;;;;;;5.88;2.38;;;;;;;22.65;42.99;100549.47;4970424;28;20050;-42
2022/07/18 06:09:04;;;;;;;5.00;2.55;;;;;;;22.82;42.21;100557.47;4964085;28;20059;-46
2022/07/18 06:11:31;;;;;;;5.63;2.72;;;;;;;22.99;42.72;100553.19;4980829;28;20055;-44
2022/07/18 06:13:58;;;;;;;10.85;2.55;;;;;;;23.14;42.19;100550.75;4965175;28;20141;-44
2022/07/18 06:16:25;;;;;;;11.93;2.53;;;;;;;23.30;42.42;100550.88;4963717;28;20071;-43
2022/07/18 06:18:52;;;;;;;7.15;2.70;;;;;;;23.45;42.04;100546.66;4964173;28;20055;-43
2022/07/18 06:21:18;;;;;;;12.40;2.53;;;;;;;23.60;42.56;100548.53;4966698;28;20054;-43
2022/07/18 06:23:45;;;;;;;16.67;2.50;;;;;;;23.78;42.45;100545.91;4963838;28;20522;-43
2022/07/18 06:26:12;;;;;;;17.48;2.55;;;;;;;23.97;41.66;100542.31;4963916;28;20059;-43
2022/07/18 06:28:38;;;;;;;9.70;2.13;;;;;;;24.15;42.06;100537.03;4969379;28;20112;-44
2022/07/18 06:31:15;;;;;;;4.88;2.30;;;;;;;24.35;42.57;100543.94;4966408;28;20142;-43
2022/07/18 06:33:43;;;;;;;6.85;2.40;;;;;;;24.56;42.77;100541.94;4966170;28;20050;-43
2022/07/18 06:36:11;;;;;;;7.45;2.80;;;;;;;24.75;42.40;100541.78;4964411;28;20047;-43
2022/07/18 06:38:39;;;;;;;5.68;2.33;;;;;;;24.99;42.37;100543.22;4962058;28;20490;-44
2022/07/18 06:41:07;;;;;;;5.53;2.28;;;;;;;25.25;41.92;100538.22;4964464;28;20905;-45
2022/07/18 06:43:38;;;;;;;7.18;2.42;;;;;;;25.50;41.66;100542.13;4966824;28;20062;-44
2022/07/18 06:46:05;;;;;;;5.60;2.53;;;;;;;25.76;41.19;100537.09;4964405;28;20087;-43
2022/07/18 06:48:34;;;;;;;8.20;2.25;;;;;;;26.03;41.07;100545.22;4967211;28;20050;-45
2022/07/18 06:51:05;;;;;;;13.48;3.03;;;;;;;26.29;40.14;100539.28;4961812;28;20051;-44
2022/07/18 06:53:32;;;;;;;8.13;2.28;;;;;;;26.56;40.21;100542.03;4945609;28;20063;-42
2022/07/18 06:56:02;;;;;;;8.10;2.38;;;;;;;26.82;39.59;100541.34;4968326;28;20105;-43
2022/07/18 06:58:31;;;;;;;8.55;2.50;;;;;;;27.12;38.99;100540.34;4967867;28;20740;-43
2022/07/18 07:00:57;;;;;;;6.65;2.67;;;;;;;27.43;38.02;100548.13;4965024;28;20062;-43
2022/07/18 07:03:24;;;;;;;5.18;2.42;;;;;;;27.67;37.07;100552.78;4966308;28;20046;-43
2022/07/18 07:05:51;;;;;;;10.20;2.80;;;;;;;27.88;36.92;100550.47;4967671;28;20105;-42
2022/07/18 07:08:18;;;;;;;6.43;2.47;;;;;;;28.08;36.83;100545.59;4964047;28;20067;-44
2022/07/18 07:10:44;;;;;;;13.35;2.55;;;;;;;28.32;36.55;100545.72;4967089;28;20054;-44
2022/07/18 07:13:11;;;;;;;9.63;2.25;;;;;;;28.58;35.87;100552.81;4968224;28;20514;-44
2022/07/18 07:15:43;;;;;;;9.52;2.40;;;;;;;28.78;35.40;100539.88;4967033;28;20046;-43
2022/07/18 07:18:10;;;;;;;4.53;2.55;;;;;;;29.02;35.48;100549.75;4964274;28;20105;-44
2022/07/18 07:20:37;;;;;;;8.48;2.80;;;;;;;29.24;34.51;100541.88;4967334;28;20091;-47
2022/07/18 07:23:07;;;;;;;4.90;2.65;;;;;;;29.48;34.01;100554.34;4965932;28;20391;-45
2022/07/18 07:25:34;;;;;;;4.78;2.40;;;;;;;29.72;33.52;100553.47;4967458;28;20053;-46
2022/07/18 07:28:02;;;;;;;5.07;2.55;;;;;;;29.96;33.50;100555.22;4963102;28;20055;-46
2022/07/18 07:30:29;;;;;;;5.78;2.83;;;;;;;30.19;32.61;100559.78;4965368;28;20054;-44
2022/07/18 07:32:55;;;;;;;4.63;2.40;;;;;;;30.38;32.42;100548.50;4962978;28;20053;-46
2022/07/18 07:35:22;;;;;;;5.35;2.92;;;;;;;30.59;32.45;100550.44;4964100;28;20058;-46
2022/07/18 07:37:53;;;;;;;3.80;2.63;;;;;;;30.84;31.94;100551.16;4965793;28;20042;-48
2022/07/18 07:40:21;;;;;;;9.60;2.63;;;;;;;31.09;32.34;100559.84;4961949;28;20042;-43
2022/07/18 07:42:48;;;;;;;7.13;2.47;;;;;;;31.35;31.34;100567.56;4964458;28;20791;-46
2022/07/18 07:45:15;;;;;;;4.63;3.03;;;;;;;31.52;30.40;100564.34;4960595;28;20597;-45
2022/07/18 07:47:42;;;;;;;4.88;2.50;;;;;;;31.72;30.58;100569.84;4975317;28;20054;-44
2022/07/18 07:50:10;;;;;;;5.63;2.45;;;;;;;31.94;30.41;100562.66;4976038;28;20055;-43
2022/07/18 07:52:38;;;;;;;4.82;2.40;;;;;;;32.18;30.43;100565.06;4963243;28;20047;-44
2022/07/18 07:55:06;;;;;;;9.18;3.00;;;;;;;32.42;29.84;100563.06;4961332;28;20062;-44
2022/07/18 07:57:35;;;;;;;5.78;2.85;;;;;;;32.59;30.16;100561.59;4964634;28;20050;-45
2022/07/18 08:00:06;;;;;;;8.43;2.28;;;;;;;32.82;29.80;100562.22;4962495;28;20059;-45
2022/07/18 08:02:32;;;;;;;6.65;2.03;;;;;;;33.10;29.50;100563.44;4960503;28;20079;-46
2022/07/18 08:04:59;;;;;;;10.30;2.55;;;;;;;33.31;28.97;100564.16;4961306;28;20731;-46
2022/07/18 08:07:26;;;;;;;3.45;2.30;;;;;;;33.52;29.43;100570.34;4960159;28;20058;-44
2022/07/18 08:09:52;;;;;;;5.80;2.50;;;;;;;33.74;29.04;100566.56;4963270;28;20097;-49
2022/07/18 08:12:19;;;;;;;5.68;2.40;;;;;;;33.94;28.46;100561.13;4965111;28;20046;-46
2022/07/18 08:14:46;;;;;;;5.63;2.80;;;;;;;34.14;27.84;100555.72;4963128;28;20101;-47
2022/07/18 08:17:12;;;;;;;10.60;3.38;;;;;;;34.32;28.90;100559.34;4963379;28;20050;-45
2022/07/18 08:19:39;;;;;;;4.47;2.33;;;;;;;34.44;27.93;100564.53;4960588;28;20581;-50
2022/07/18 08:22:06;;;;;;;8.80;3.15;;;;;;;34.60;27.75;100564.72;4962885;28;20058;-44
2022/07/18 08:24:32;;;;;;;6.57;2.33;;;;;;;34.79;27.50;100559.41;4961306;28;20495;-48
2022/07/18 08:26:59;;;;;;;4.65;2.63;;;;;;;34.94;28.03;100563.28;4960436;28;20047;-46
2022/07/18 08:29:26;;;;;;;9.23;2.78;;;;;;;35.08;26.95;100558.38;4964131;28;20102;-45
2022/07/18 08:32:13;;;;;;;5.25;2.50;;;;;;;35.26;26.43;100566.47;4958928;28;20194;-44
2022/07/18 08:34:40;;;;;;;6.25;2.30;;;;;;;35.32;27.11;100565.84;4962979;28;20070;-48
2022/07/18 08:37:06;;;;;;;5.55;2.55;;;;;;;35.33;26.41;100556.78;4960314;28;20110;-43
2022/07/18 08:39:33;;;;;;;7.47;2.65;;;;;;;35.43;26.11;100561.22;4963185;28;20050;-48
2022/07/18 08:42:01;;;;;;;4.65;2.55;;;;;;;35.61;26.20;100553.97;4960438;28;20478;-45
2022/07/18 08:44:28;;;;;;;8.82;3.22;;;;;;;35.79;26.84;100558.47;4963157;28;20054;-43
2022/07/18 08:46:57;;;;;;;12.27;2.40;;;;;;;35.94;25.99;100556.06;4967034;28;20114;-48
2022/07/18 08:49:24;;;;;;;4.97;2.40;;;;;;;36.12;25.84;100561.38;4962526;28;20059;-44
2022/07/18 08:51:51;;;;;;;8.85;2.40;;;;;;;36.29;26.59;100556.09;4966672;28;20514;-44
2022/07/18 08:54:18;;;;;;;6.45;2.38;;;;;;;36.49;26.21;100551.31;4964007;28;20562;-45
2022/07/18 08:56:48;;;;;;;5.18;2.45;;;;;;;36.73;25.77;100551.56;4964424;28;20051;-49
2022/07/18 08:59:15;;;;;;;5.65;2.45;;;;;;;36.90;25.36;100547.91;4964638;28;20059;-46
2022/07/18 09:01:41;;;;;;;6.90;2.83;;;;;;;37.06;25.02;100551.63;4962001;28;20557;-43
2022/07/18 09:04:17;;;;;;;5.38;2.97;;;;;;;37.19;25.21;100555.72;4961839;28;20050;-43
2022/07/18 09:06:44;;;;;;;;;;;;;;;37.34;26.40;100543.22;4964913;28;20050;-42
2022/07/18 09:09:13;;;;;;;6.43;2.45;;;;;;;37.53;24.84;100546.59;4966273;28;20440;-43
2022/07/18 09:11:58;;;;;;;3.45;2.35;;;;;;;37.67;25.37;100550.50;4969737;28;20117;-43
2022/07/18 09:14:30;;;;;;;4.13;2.53;;;;;;;37.78;25.09;100543.88;4960637;28;20633;-43
2022/07/18 09:22:47;;;;;;;5.93;2.55;;;;;;;37.85;23.22;100535.94;5049339;27;20884;-42
2022/07/18 09:25:16;;;;;;;3.58;1.90;;;;;;;37.96;24.71;100542.84;5005591;28;20049;-43
2022/07/18 09:27:46;;;;;;;5.55;2.38;;;;;;;38.16;24.21;100544.13;4999969;28;20530;-45
2022/07/18 09:30:35;;;;;;;4.45;2.47;;;;;;;38.27;23.29;100542.06;4994385;28;20058;-48
2022/07/18 09:35:43;;;;;;;4.70;2.47;;;;;;;38.40;23.31;100536.94;5026132;28;20394;-43
2022/07/18 09:38:12;;;;;;;13.57;2.60;;;;;;;38.48;23.87;100538.75;4989700;28;20486;-43
2022/07/18 09:40:40;;;;;;;;;;;;;;;38.61;24.39;100538.22;4995205;28;20053;-46
2022/07/18 09:43:09;;;;;;;3.50;2.42;;;;;;;38.80;23.84;100542.31;4997859;28;20503;-43
2022/07/18 09:45:41;;;;;;;2.78;2.03;;;;;;;38.90;23.72;100541.25;4992669;28;20054;-48
2022/07/18 09:48:10;;;;;;;4.95;2.08;;;;;;;39.03;23.04;100530.66;4993759;28;20545;-44
2022/07/18 09:50:41;;;;;;;6.90;2.70;;;;;;;39.11;22.92;100527.09;4991857;28;20054;-47
2022/07/18 09:53:14;;;;;;;3.28;2.03;;;;;;;39.25;23.21;100532.72;5009006;28;20046;-43
2022/07/18 09:56:03;;;;;;;5.00;2.38;;;;;;;39.37;23.70;100536.66;5007069;28;20126;-48
2022/07/18 09:58:33;;;;;;;3.72;2.55;;;;;;;39.43;23.37;100533.22;4992421;28;20062;-47
2022/07/18 10:01:02;;;;;;;3.22;2.50;;;;;;;39.52;22.68;100533.16;4998183;28;20148;-42
2022/07/18 10:03:29;;;;;;;3.22;2.20;;;;;;;39.43;23.09;100527.81;4996566;28;20053;-43
2022/07/18 10:05:58;;;;;;;3.88;2.40;;;;;;;39.49;22.92;100528.94;5010963;28;20046;-44
2022/07/18 10:08:29;;;;;;;3.60;2.72;;;;;;;39.62;22.95;100532.91;4998605;28;20108;-42
2022/07/18 10:10:59;;;;;;;4.35;2.35;;;;;;;39.74;23.58;100530.59;4999685;28;20050;-45
2022/07/18 10:13:28;;;;;;;4.15;2.40;;;;;;;39.83;22.73;100529.47;4999472;28;20046;-43
2022/07/18 10:15:55;;;;;;;3.80;2.85;;;;;;;39.91;23.10;100525.84;4995459;28;20046;-45
2022/07/18 10:18:24;;;;;;;8.63;2.05;;;;;;;39.99;23.26;100527.63;5001469;28;20096;-44
2022/07/18 10:20:58;;;;;;;5.40;2.20;;;;;;;40.02;22.48;100527.25;4999244;28;20097;-42
2022/07/18 10:31:33;;;;;;;3.95;2.65;;;;;;;40.40;22.24;100524.41;5080911;27;20541;-47
2022/07/18 10:42:20;;;;;;;4.22;3.83;;;;;;;40.19;22.07;100517.91;5087045;27;20422;-43
2022/07/18 10:44:47;;;;;;;4.43;3.33;;;;;;;40.16;23.27;100518.28;5056851;28;20805;-49
2022/07/18 10:47:17;;;;;;;4.60;3.58;;;;;;;40.27;22.33;100518.78;5057053;28;20052;-45
2022/07/18 11:26:30;;;;;;;4.75;2.78;;;;;;;40.98;22.53;100495.59;5032329;28;20398;-46
2022/07/18 11:31:56;;;;;;;4.20;2.67;;;;;;;40.89;21.22;100494.88;5002116;28;20443;-45
2022/07/18 17:01:35;;;;;;;3.30;1.92;;;;;;;39.74;21.05;100218.91;5074152;27;20382;-45
2022/07/18 17:04:09;;;;;;;3.75;1.45;;;;;;;39.66;21.30;100215.28;5028530;28;20049;-44
2022/07/18 17:06:36;;;;;;;4.68;1.98;;;;;;;39.55;21.00;100213.09;5015918;28;20045;-43
2022/07/18 17:09:03;;;;;;;3.00;1.70;;;;;;;39.46;21.40;100210.47;5009002;28;20068;-43
2022/07/18 17:11:30;;;;;;;4.38;2.00;;;;;;;39.39;21.22;100214.97;5015557;28;20497;-43
2022/07/18 17:14:04;;;;;;;4.43;1.85;;;;;;;39.34;21.31;100201.19;5031284;28;20045;-44
2022/07/18 17:16:31;;;;;;;3.30;1.90;;;;;;;39.30;21.67;100199.88;5019088;28;20132;-44
2022/07/18 17:18:58;;;;;;;2.92;1.70;;;;;;;39.21;21.58;100201.88;5018909;28;20048;-42
2022/07/18 17:21:26;;;;;;;3.10;1.63;;;;;;;39.08;21.74;100189.00;5057258;28;20059;-47
2022/07/18 17:23:53;;;;;;;3.67;2.08;;;;;;;38.94;21.65;100196.09;5061986;28;20049;-44
2022/07/18 17:26:23;;;;;;;3.13;1.70;;;;;;;38.78;21.55;100189.84;5060679;28;20099;-47
2022/07/18 17:28:50;;;;;;;4.72;1.70;;;;;;;38.66;22.46;100192.16;5059450;28;20076;-48
2022/07/18 17:31:18;;;;;;;4.82;2.13;;;;;;;38.59;22.46;100198.50;5059596;28;20114;-45
2022/07/18 17:33:46;;;;;;;3.60;2.38;;;;;;;38.51;22.36;100191.28;5058775;28;20065;-44
2022/07/18 17:36:13;;;;;;;5.93;1.95;;;;;;;38.43;22.73;100194.94;5058373;28;20045;-49
2022/07/18 17:38:40;;;;;;;5.90;2.00;;;;;;;38.34;22.70;100196.88;5060205;28;20542;-47
2022/07/18 17:41:07;;;;;;;4.82;2.20;;;;;;;38.22;22.60;100187.53;5059755;28;20047;-49
2022/07/18 17:43:42;;;;;;;2.50;2.03;;;;;;;38.10;22.85;100187.94;5061702;28;20045;-43
2022/07/18 17:46:10;;;;;;;3.53;2.20;;;;;;;38.01;22.96;100186.31;5059485;28;20045;-43
2022/07/18 17:48:37;;;;;;;5.05;2.20;;;;;;;37.93;22.96;100185.38;5061553;28;20041;-49
2022/07/18 17:51:05;;;;;;;4.40;2.33;;;;;;;37.86;23.28;100184.44;5059200;28;20048;-46
2022/07/18 17:53:33;;;;;;;5.55;1.90;;;;;;;37.78;23.87;100179.06;5062709;28;20049;-47
2022/07/18 17:56:00;;;;;;;4.53;2.17;;;;;;;37.71;24.30;100187.06;5063266;28;20049;-48
2022/07/18 17:58:27;;;;;;;9.27;2.97;;;;;;;37.63;24.46;100190.66;5061443;28;20053;-48